Time;durP1;ratioP1;P1;durP2;ratioP2;P2;SDS_P1;SDS_P2;PMS_P1;PMS_P2;Temp;Humidity;BMP_temperature;BMP_pressure;BME280_temperature;BME280_humidity;BME280_pressure;Samples;Min_cycle;Max_cycle;Signal;HPM_P1;HPM_P2
2022/11/05 00:10:29;;;;;;;9.98;3.47;;;7.20;99.90;;;;;;5049785;28;20488;-74
2022/11/05 00:18:28;;;;;;;7.45;3.30;;;7.30;99.90;;;;;;5071621;28;20027;-75
2022/11/05 00:20:54;;;;;;;6.35;3.30;;;7.30;99.90;;;;;;5072284;28;20527;-75
2022/11/05 00:26:07;;;;;;;5.70;3.35;;;7.30;99.90;;;;;;5072473;28;20035;-74
2022/11/05 00:28:34;;;;;;;7.15;3.25;;;7.30;99.90;;;;;;5071843;28;20105;-75
2022/11/05 00:31:02;;;;;;;7.65;3.28;;;7.30;99.90;;;;;;5071517;28;20465;-74
2022/11/05 00:33:27;;;;;;;6.72;3.50;;;7.30;99.90;;;;;;5071927;28;20032;-75
2022/11/05 00:35:53;;;;;;;6.63;3.10;;;7.20;99.90;;;;;;5072434;28;20033;-75
2022/11/05 00:38:18;;;;;;;5.00;3.08;;;7.20;99.90;;;;;;5071433;28;20020;-75
2022/11/05 00:40:44;;;;;;;7.82;3.50;;;7.20;99.90;;;;;;5071550;28;20392;-75
2022/11/05 00:45:55;;;;;;;5.63;3.03;;;7.20;99.90;;;;;;5075474;28;20499;-74
2022/11/05 00:51:06;;;;;;;5.43;3.03;;;7.10;99.90;;;;;;5072854;28;20515;-75
2022/11/05 00:53:31;;;;;;;6.30;3.70;;;7.20;99.90;;;;;;5070776;28;20599;-74
2022/11/05 00:55:57;;;;;;;6.03;3.67;;;7.10;99.90;;;;;;5071956;28;20108;-74
2022/11/05 00:58:23;;;;;;;9.07;3.42;;;7.10;99.90;;;;;;5072100;28;20077;-75
2022/11/05 01:00:54;;;;;;;4.38;3.15;;;7.10;99.90;;;;;;5070857;28;20567;-75
2022/11/05 01:03:28;;;;;;;10.43;3.78;;;7.10;99.90;;;;;;5071999;28;20480;-75
2022/11/05 01:06:04;;;;;;;5.25;3.30;;;7.10;99.90;;;;;;5058418;28;20017;-74
2022/11/05 01:08:29;;;;;;;7.05;3.47;;;7.10;99.90;;;;;;5058078;28;20034;-74
2022/11/05 01:10:57;;;;;;;5.07;3.40;;;7.10;99.90;;;;;;5071870;28;20380;-73
2022/11/05 01:13:26;;;;;;;5.97;3.30;;;7.10;99.90;;;;;;5071219;28;20035;-73
2022/11/05 01:15:51;;;;;;;5.75;3.33;;;7.10;99.90;;;;;;5072286;28;20024;-74
2022/11/05 01:18:19;;;;;;;7.32;3.65;;;7.10;99.90;;;;;;5072017;28;20032;-74
2022/11/05 01:20:45;;;;;;;9.23;3.83;;;7.00;99.90;;;;;;5073374;28;20027;-74
2022/11/05 01:23:10;;;;;;;6.78;3.53;;;7.10;99.90;;;;;;5075383;28;20025;-74
2022/11/05 01:25:36;;;;;;;8.98;3.53;;;7.10;99.90;;;;;;5074847;28;20521;-73
2022/11/05 01:28:03;;;;;;;11.88;3.35;;;7.10;99.90;;;;;;5074514;28;20388;-74
2022/11/05 01:30:28;;;;;;;7.78;3.30;;;7.10;99.90;;;;;;5074456;28;20024;-74
2022/11/05 01:32:54;;;;;;;7.80;3.10;;;7.00;99.90;;;;;;5075110;28;20043;-74
2022/11/05 01:35:19;;;;;;;8.90;3.47;;;7.00;99.90;;;;;;5074580;28;20031;-74
2022/11/05 01:37:45;;;;;;;8.88;3.22;;;7.10;99.90;;;;;;5075074;28;20057;-75
2022/11/05 01:40:17;;;;;;;7.07;3.13;;;7.00;99.90;;;;;;5075173;28;20024;-74
2022/11/05 01:42:43;;;;;;;6.53;3.08;;;7.00;99.90;;;;;;5074261;28;20059;-75
2022/11/05 01:45:08;;;;;;;6.00;3.20;;;7.10;99.90;;;;;;5074986;28;20062;-74
2022/11/05 01:47:52;;;;;;;7.30;3.30;;;7.00;99.90;;;;;;5055754;28;20028;-74
2022/11/05 01:50:40;;;;;;;8.52;3.55;;;7.00;99.90;;;;;;5058018;28;20107;-74
2022/11/05 01:53:18;;;;;;;7.57;3.25;;;6.90;99.90;;;;;;5065952;28;20060;-74
2022/11/05 01:56:01;;;;;;;7.07;2.88;;;6.90;99.90;;;;;;5062020;28;20045;-73
2022/11/05 01:58:32;;;;;;;6.80;2.88;;;6.90;99.90;;;;;;5060590;28;20025;-73
2022/11/05 02:00:58;;;;;;;8.85;3.40;;;6.90;99.90;;;;;;5074665;28;20024;-73
2022/11/05 02:03:25;;;;;;;5.75;3.00;;;6.90;99.90;;;;;;5068431;28;20079;-74
2022/11/05 02:05:54;;;;;;;6.10;2.72;;;6.80;99.90;;;;;;5065130;28;20024;-74
2022/11/05 02:08:58;;;;;;;12.65;3.30;;;6.80;99.90;;;;;;5074377;28;20031;-74
2022/11/05 02:11:24;;;;;;;5.95;2.75;;;6.80;99.90;;;;;;5073688;28;20036;-74
2022/11/05 02:13:49;;;;;;;12.27;3.38;;;6.70;99.90;;;;;;5074655;28;20501;-73
2022/11/05 02:16:40;;;;;;;10.63;3.20;;;6.60;99.90;;;;;;5074018;28;20074;-74
2022/11/05 02:19:37;;;;;;;;;;;6.60;99.90;;;;;;5063010;28;20025;-73
2022/11/05 02:22:14;;;;;;;7.57;2.40;;;6.60;99.90;;;;;;5073544;28;20432;-74
2022/11/05 02:24:49;;;;;;;7.20;2.20;;;6.50;99.90;;;;;;5073345;28;20029;-74
2022/11/05 02:27:36;;;;;;;7.47;2.15;;;6.50;99.90;;;;;;5073760;28;20492;-75
2022/11/05 02:30:22;;;;;;;7.22;2.55;;;6.50;99.90;;;;;;5073781;28;20435;-74
2022/11/05 02:33:15;;;;;;;10.48;3.10;;;6.50;99.90;;;;;;5072952;28;20040;-75
2022/11/05 02:36:05;;;;;;;7.10;2.55;;;6.50;99.90;;;;;;5077563;28;20024;-75
2022/11/05 02:38:44;;;;;;;7.32;2.60;;;6.60;99.90;;;;;;5075383;28;20469;-74
2022/11/05 02:41:24;;;;;;;6.85;3.15;;;6.60;99.90;;;;;;5074291;28;20162;-74
2022/11/05 02:43:55;;;;;;;4.50;2.80;;;6.60;99.90;;;;;;5074001;28;20020;-74
2022/11/05 02:46:42;;;;;;;5.88;2.75;;;6.60;99.90;;;;;;5072952;28;20020;-74
2022/11/05 02:49:20;;;;;;;6.35;2.75;;;6.60;99.90;;;;;;5073434;28;20469;-74
2022/11/05 02:51:54;;;;;;;7.25;3.13;;;6.70;99.90;;;;;;5072675;28;20040;-74
2022/11/05 02:54:27;;;;;;;7.78;2.88;;;6.70;99.90;;;;;;5071071;28;20047;-74
2022/11/05 02:56:56;;;;;;;10.93;2.83;;;6.80;99.90;;;;;;5063222;28;20025;-74
2022/11/05 02:59:23;;;;;;;9.23;2.47;;;6.80;99.90;;;;;;5072661;28;20029;-74
2022/11/05 03:01:51;;;;;;;8.52;2.67;;;6.90;99.90;;;;;;5073862;28;20033;-74
2022/11/05 03:04:20;;;;;;;5.88;2.80;;;6.90;99.90;;;;;;5073819;28;20032;-74
2022/11/05 03:07:09;;;;;;;4.15;2.40;;;6.90;99.90;;;;;;5072304;28;20122;-74
2022/11/05 03:09:47;;;;;;;10.45;2.95;;;6.90;99.90;;;;;;5034947;28;20393;-74
2022/11/05 03:12:20;;;;;;;7.93;2.60;;;6.90;99.90;;;;;;5073462;28;20056;-74
2022/11/05 03:15:15;;;;;;;15.57;3.13;;;6.90;99.90;;;;;;5073032;28;20028;-74
2022/11/05 03:18:04;;;;;;;6.65;2.45;;;7.00;99.90;;;;;;5072988;28;20021;-74
2022/11/05 03:20:46;;;;;;;5.93;2.42;;;7.00;99.90;;;;;;5060114;28;20016;-74
2022/11/05 03:23:12;;;;;;;9.52;2.95;;;7.00;99.90;;;;;;5072685;28;20456;-74
2022/11/05 03:25:44;;;;;;;4.35;2.58;;;7.00;99.90;;;;;;5072811;28;20032;-74
2022/11/05 03:28:12;;;;;;;4.82;2.33;;;7.00;99.90;;;;;;5072402;28;20044;-74
2022/11/05 03:30:40;;;;;;;5.75;2.13;;;7.00;99.90;;;;;;5072567;28;20476;-74
2022/11/05 03:33:12;;;;;;;7.20;2.25;;;7.00;99.90;;;;;;5073282;28;20040;-75
2022/11/05 03:35:46;;;;;;;4.07;2.33;;;7.00;99.90;;;;;;5072045;28;20048;-74
2022/11/05 03:38:18;;;;;;;5.55;2.60;;;7.00;99.90;;;;;;5073045;28;20112;-74
2022/11/05 03:40:46;;;;;;;5.85;2.40;;;7.00;99.90;;;;;;5058902;28;20029;-74
2022/11/05 03:43:13;;;;;;;5.30;3.08;;;7.00;99.90;;;;;;5073382;28;20032;-75
2022/11/05 03:45:52;;;;;;;4.80;2.60;;;7.10;99.90;;;;;;5072579;28;20349;-75
2022/11/05 03:48:19;;;;;;;3.60;2.67;;;7.20;99.90;;;;;;5072754;28;20028;-75
2022/11/05 03:51:34;;;;;;;5.90;2.50;;;7.20;99.90;;;;;;5072172;28;20487;-75
2022/11/05 03:54:03;;;;;;;4.50;2.28;;;7.30;99.90;;;;;;5046806;28;20481;-75
2022/11/05 03:56:51;;;;;;;5.10;2.28;;;7.30;99.90;;;;;;5057902;28;20024;-74
2022/11/05 03:59:18;;;;;;;4.50;2.25;;;7.30;99.90;;;;;;5072537;28;20024;-74
2022/11/05 04:01:44;;;;;;;5.20;2.28;;;7.40;99.90;;;;;;5071543;28;20133;-73
2022/11/05 04:04:09;;;;;;;5.97;1.60;;;7.40;99.90;;;;;;5072622;28;20028;-74
2022/11/05 04:14:48;;;;;;;4.57;1.75;;;7.80;99.90;;;;;;5072266;28;20046;-74
2022/11/05 04:17:14;;;;;;;5.88;1.77;;;7.80;99.90;;;;;;5072331;28;20025;-74
2022/11/05 04:25:12;;;;;;;3.65;2.03;;;7.70;99.90;;;;;;5075455;28;20381;-74
2022/11/05 04:27:38;;;;;;;1.83;1.73;;;7.70;99.90;;;;;;5073926;28;20095;-74
2022/11/05 04:30:20;;;;;;;2.35;1.60;;;7.70;99.90;;;;;;5071712;28;20477;-74
2022/11/05 04:33:05;;;;;;;1.75;1.42;;;7.70;99.90;;;;;;5072034;28;20044;-75
2022/11/05 04:35:36;;;;;;;2.00;1.83;;;7.70;99.90;;;;;;5071917;28;20013;-74
2022/11/05 04:38:07;;;;;;;7.82;1.70;;;7.60;99.90;;;;;;5071550;28;20472;-73
2022/11/05 04:40:33;;;;;;;2.75;1.58;;;7.50;99.90;;;;;;5071452;28;20024;-74
2022/11/05 04:42:59;;;;;;;2.47;1.80;;;7.40;99.90;;;;;;5072183;28;20440;-73
2022/11/05 04:45:28;;;;;;;5.50;1.85;;;7.40;99.90;;;;;;5071026;28;20020;-74
2022/11/05 04:47:53;;;;;;;3.00;1.80;;;7.30;99.90;;;;;;5072136;28;20020;-74
2022/11/05 04:50:22;;;;;;;3.53;1.80;;;7.20;99.90;;;;;;5072174;28;20028;-74
2022/11/05 04:52:48;;;;;;;3.85;1.70;;;7.20;99.90;;;;;;5071557;28;20460;-74
2022/11/05 04:55:14;;;;;;;1.45;1.30;;;7.10;99.90;;;;;;5063706;28;20132;-74
2022/11/05 04:57:39;;;;;;;4.25;1.50;;;7.10;99.90;;;;;;5071484;28;20024;-73
2022/11/05 05:00:07;;;;;;;2.90;1.60;;;7.10;99.90;;;;;;5074879;28;20039;-74
2022/11/05 05:02:33;;;;;;;2.58;1.10;;;7.10;99.90;;;;;;5075776;28;20134;-74
2022/11/05 05:04:58;;;;;;;5.30;1.67;;;7.00;99.90;;;;;;5075344;28;20025;-74
2022/11/05 05:07:25;;;;;;;3.55;1.40;;;7.00;99.90;;;;;;5075701;28;20507;-74
2022/11/05 05:09:51;;;;;;;5.72;1.90;;;7.00;99.90;;;;;;5075704;28;20021;-74
2022/11/05 05:12:17;;;;;;;4.13;1.40;;;6.90;99.90;;;;;;5075313;28;20037;-74
2022/11/05 05:14:42;;;;;;;3.45;1.70;;;7.00;99.90;;;;;;5074925;28;20020;-73
2022/11/05 05:17:08;;;;;;;3.50;1.50;;;6.90;99.90;;;;;;5075477;28;20059;-73
2022/11/05 05:21:37;;;;;;;4.53;1.70;;;6.90;99.90;;;;;;5074163;28;20028;-74
2022/11/05 05:22:19;;;;;;;5.70;1.55;;;7.00;99.90;;;;;;5075225;28;20107;-74
2022/11/05 05:24:45;;;;;;;4.35;1.90;;;6.90;99.90;;;;;;5075321;28;20040;-75
2022/11/05 05:27:10;;;;;;;2.15;1.88;;;6.90;99.90;;;;;;5074822;28;20572;-73
2022/11/05 05:29:36;;;;;;;2.80;1.90;;;6.90;99.90;;;;;;5074923;28;20028;-74
2022/11/05 05:32:01;;;;;;;7.07;2.22;;;7.00;99.90;;;;;;5075096;28;20469;-73
2022/11/05 05:34:27;;;;;;;2.20;1.80;;;7.00;99.90;;;;;;5074145;28;20020;-73
2022/11/05 05:36:52;;;;;;;6.70;2.08;;;6.90;99.90;;;;;;5074614;28;20552;-74
2022/11/05 05:39:18;;;;;;;8.70;1.83;;;7.00;99.90;;;;;;5074815;28;20021;-73
2022/11/05 05:41:43;;;;;;;7.18;1.80;;;7.00;99.90;;;;;;5073885;28;20520;-73
2022/11/05 05:44:09;;;;;;;4.80;1.75;;;7.00;99.90;;;;;;5075296;28;20093;-74
2022/11/05 05:46:34;;;;;;;2.67;1.52;;;7.10;99.90;;;;;;5075322;28;20035;-74
2022/11/05 05:49:00;;;;;;;3.33;1.60;;;7.10;99.90;;;;;;5075034;28;20468;-74
2022/11/05 05:51:26;;;;;;;7.07;2.03;;;7.10;99.90;;;;;;5074602;28;20504;-75
2022/11/05 05:53:54;;;;;;;3.83;1.83;;;7.20;99.90;;;;;;5074791;28;20473;-75
2022/11/05 05:56:20;;;;;;;3.75;2.20;;;7.20;99.90;;;;;;5059837;28;20024;-74
2022/11/05 05:58:46;;;;;;;6.88;1.65;;;7.30;99.90;;;;;;5074065;28;20029;-74
2022/11/05 06:01:13;;;;;;;5.78;2.40;;;7.30;99.90;;;;;;5073744;28;20016;-75
2022/11/05 06:03:39;;;;;;;2.85;2.30;;;7.30;99.90;;;;;;5074376;28;20044;-74
2022/11/05 06:06:13;;;;;;;6.80;3.25;;;7.30;99.90;;;;;;5069614;28;20060;-74
2022/11/05 06:08:40;;;;;;;5.90;3.53;;;7.40;99.90;;;;;;5068819;28;20082;-74
2022/11/05 06:11:06;;;;;;;4.55;3.40;;;7.40;99.90;;;;;;5071385;28;20056;-74
2022/11/05 06:13:35;;;;;;;7.38;3.50;;;7.50;99.90;;;;;;5084330;28;20396;-75
2022/11/05 06:16:03;;;;;;;8.00;3.80;;;7.40;99.90;;;;;;5077256;28;20024;-74
2022/11/05 06:18:30;;;;;;;7.22;4.05;;;7.30;99.90;;;;;;5070379;28;20047;-75
2022/11/05 06:21:03;;;;;;;8.88;4.70;;;7.30;99.90;;;;;;5074312;28;20451;-75
2022/11/05 06:23:34;;;;;;;7.93;4.25;;;7.30;99.90;;;;;;5072274;28;20067;-75
2022/11/05 06:26:01;;;;;;;11.65;5.53;;;7.20;99.90;;;;;;5073429;28;20078;-75
2022/11/05 06:28:28;;;;;;;10.18;5.03;;;7.30;99.90;;;;;;5070750;28;20107;-75
2022/11/05 06:30:54;;;;;;;7.75;5.45;;;7.30;99.90;;;;;;5072128;28;20111;-75
2022/11/05 06:33:20;;;;;;;8.73;5.72;;;7.20;99.90;;;;;;5071406;28;20032;-75
2022/11/05 06:35:45;;;;;;;13.52;6.95;;;7.20;99.90;;;;;;5072562;28;20031;-75
2022/11/05 06:38:11;;;;;;;12.88;6.68;;;7.20;99.90;;;;;;5071405;28;20111;-74
2022/11/05 06:40:36;;;;;;;10.98;6.78;;;7.20;99.90;;;;;;5073407;28;20024;-75
2022/11/05 06:43:02;;;;;;;7.70;6.68;;;7.20;99.90;;;;;;5073218;28;20017;-74
2022/11/05 06:45:27;;;;;;;13.02;7.88;;;7.20;99.90;;;;;;5070412;28;20021;-75
2022/11/05 06:47:58;;;;;;;9.82;7.88;;;7.10;99.90;;;;;;5073532;28;20016;-75
2022/11/05 06:50:25;;;;;;;11.00;6.90;;;7.10;99.90;;;;;;5071585;28;20689;-75
2022/11/05 06:53:02;;;;;;;12.27;7.80;;;7.10;99.90;;;;;;5072436;28;20043;-74
2022/11/05 06:55:29;;;;;;;10.48;7.53;;;7.10;99.90;;;;;;5068091;28;20028;-75
2022/11/05 06:57:56;;;;;;;12.15;8.07;;;7.10;99.90;;;;;;5070525;28;20043;-75
2022/11/05 07:00:22;;;;;;;9.60;7.70;;;7.10;99.90;;;;;;5070175;28;20137;-75
2022/11/05 07:02:47;;;;;;;9.13;7.32;;;7.10;99.90;;;;;;5070304;28;20032;-74
2022/11/05 07:05:14;;;;;;;12.45;7.85;;;7.00;99.90;;;;;;5069677;28;20028;-74
2022/11/05 07:07:41;;;;;;;13.80;9.18;;;7.00;99.90;;;;;;5070143;28;20483;-74
2022/11/05 07:10:13;;;;;;;18.65;9.15;;;7.00;99.90;;;;;;5069904;28;20020;-75
2022/11/05 07:12:39;;;;;;;14.93;8.50;;;7.10;99.90;;;;;;5058919;28;20066;-75
2022/11/05 07:15:05;;;;;;;11.32;8.43;;;7.10;99.90;;;;;;5055778;28;20017;-74
2022/11/05 07:17:31;;;;;;;17.90;9.55;;;7.10;99.90;;;;;;5051155;28;20558;-75
2022/11/05 07:19:56;;;;;;;10.95;8.10;;;7.10;99.90;;;;;;5059956;28;20020;-75
2022/11/05 07:22:22;;;;;;;13.82;7.93;;;7.20;99.90;;;;;;5069900;28;20016;-75
2022/11/05 07:24:48;;;;;;;13.63;8.85;;;7.20;99.90;;;;;;5090189;28;20020;-75
2022/11/05 07:27:14;;;;;;;14.85;8.20;;;7.30;99.90;;;;;;5090846;28;20487;-76
2022/11/05 07:29:40;;;;;;;13.27;8.75;;;7.30;99.90;;;;;;5091642;28;20028;-74
2022/11/05 07:32:05;;;;;;;12.15;8.45;;;7.40;99.90;;;;;;5089499;28;20031;-75
2022/11/05 07:34:31;;;;;;;18.88;8.00;;;7.40;99.90;;;;;;5090381;28;20103;-74
2022/11/05 07:36:57;;;;;;;12.52;7.25;;;7.50;99.90;;;;;;5089825;28;20055;-74
2022/11/05 07:39:22;;;;;;;13.18;8.18;;;7.60;99.90;;;;;;5058139;28;20039;-75
2022/11/05 07:41:50;;;;;;;12.68;8.95;;;7.70;99.90;;;;;;5076198;28;20029;-75
2022/11/05 07:44:16;;;;;;;14.27;7.55;;;7.70;99.90;;;;;;5084112;28;20537;-75
2022/11/05 07:46:42;;;;;;;15.68;7.97;;;7.80;99.90;;;;;;5078114;28;20032;-74
2022/11/05 07:49:08;;;;;;;12.43;8.02;;;7.80;99.90;;;;;;5081909;28;20385;-74
2022/11/05 07:51:33;;;;;;;11.18;7.85;;;7.70;99.90;;;;;;5066994;28;20408;-76
2022/11/05 07:53:59;;;;;;;11.30;8.38;;;7.70;99.90;;;;;;5075991;28;20024;-75
2022/11/05 07:56:24;;;;;;;11.52;8.40;;;7.80;99.90;;;;;;5058306;28;20492;-75
2022/11/05 07:58:50;;;;;;;9.20;7.55;;;7.80;99.90;;;;;;5072737;28;20023;-74
2022/11/05 08:01:15;;;;;;;11.65;7.90;;;7.90;99.90;;;;;;5071794;28;20020;-75
2022/11/05 08:03:41;;;;;;;16.05;8.30;;;8.00;99.90;;;;;;5075242;28;20044;-75
2022/11/05 08:06:07;;;;;;;11.32;6.97;;;8.10;99.90;;;;;;5083440;28;20038;-75
2022/11/05 08:08:32;;;;;;;16.80;7.82;;;8.00;99.90;;;;;;5071866;28;20380;-75
2022/11/05 08:11:03;;;;;;;11.68;7.43;;;8.10;99.90;;;;;;5072429;28;20028;-75
2022/11/05 08:13:28;;;;;;;10.35;7.32;;;8.30;99.90;;;;;;5071624;28;20033;-75
2022/11/05 08:15:56;;;;;;;10.32;7.15;;;8.20;99.90;;;;;;5071866;28;20020;-75
2022/11/05 08:18:21;;;;;;;10.82;6.80;;;8.40;99.90;;;;;;5072446;28;20499;-75
2022/11/05 08:20:48;;;;;;;12.23;6.85;;;8.50;99.90;;;;;;5066094;28;20016;-76
2022/11/05 08:23:13;;;;;;;11.00;6.50;;;8.70;99.90;;;;;;5083169;28;20032;-76
2022/11/05 08:25:39;;;;;;;8.65;7.38;;;8.80;99.90;;;;;;5080190;28;20025;-77
2022/11/05 08:28:07;;;;;;;11.48;7.38;;;9.00;99.90;;;;;;5085122;28;20056;-76
2022/11/05 08:30:33;;;;;;;14.52;7.43;;;9.10;99.90;;;;;;5080683;28;20044;-74
2022/11/05 08:33:01;;;;;;;13.93;7.70;;;9.30;99.90;;;;;;5088919;28;20109;-75
2022/11/05 08:35:27;;;;;;;8.10;5.57;;;9.30;99.90;;;;;;5084253;28;20023;-76
2022/11/05 08:37:59;;;;;;;11.75;6.03;;;9.40;99.90;;;;;;5086811;28;20028;-77
2022/11/05 08:40:25;;;;;;;9.60;5.80;;;9.50;99.90;;;;;;5084921;28;20086;-75
2022/11/05 08:42:51;;;;;;;7.50;5.85;;;9.50;99.90;;;;;;5085901;28;20047;-76
2022/11/05 08:45:17;;;;;;;7.43;6.50;;;9.50;99.90;;;;;;5079958;28;20032;-75
2022/11/05 08:47:42;;;;;;;10.02;6.10;;;9.60;99.90;;;;;;5061763;28;20029;-75
2022/11/05 08:50:08;;;;;;;8.75;5.53;;;9.70;99.90;;;;;;5055454;28;20055;-74
2022/11/05 08:52:34;;;;;;;12.90;5.30;;;9.70;99.90;;;;;;5095209;28;20028;-75
2022/11/05 08:54:59;;;;;;;8.52;5.22;;;9.80;99.90;;;;;;5079712;28;20462;-75
2022/11/05 08:57:26;;;;;;;7.68;5.45;;;9.90;99.90;;;;;;5068747;28;20028;-75
2022/11/05 08:59:51;;;;;;;7.85;5.47;;;9.90;99.90;;;;;;5075997;28;20048;-75
2022/11/05 09:02:17;;;;;;;9.48;5.68;;;10.00;99.90;;;;;;5064216;28;20511;-75
2022/11/05 09:04:43;;;;;;;9.45;6.15;;;10.00;99.90;;;;;;5072865;28;20484;-74
2022/11/05 09:07:08;;;;;;;9.68;5.28;;;10.10;99.90;;;;;;5076349;28;20028;-75
2022/11/05 09:09:34;;;;;;;7.32;5.30;;;10.10;99.90;;;;;;5075623;28;20426;-74
2022/11/05 09:11:59;;;;;;;9.65;5.70;;;10.20;99.90;;;;;;5074814;28;20036;-74
2022/11/05 09:14:29;;;;;;;8.95;6.32;;;10.30;99.90;;;;;;5075605;28;20021;-73
2022/11/05 09:16:54;;;;;;;8.98;5.80;;;10.40;99.90;;;;;;5062411;28;20040;-73
2022/11/05 09:19:20;;;;;;;9.23;5.40;;;10.40;99.90;;;;;;5075778;28;20464;-74
2022/11/05 09:21:45;;;;;;;7.30;5.43;;;10.50;99.90;;;;;;5075008;28;20027;-78
2022/11/05 09:24:11;;;;;;;7.50;5.30;;;10.60;99.90;;;;;;5061032;28;20051;-75
2022/11/05 09:26:36;;;;;;;7.22;4.63;;;10.70;99.90;;;;;;5071489;28;20016;-75
2022/11/05 09:29:02;;;;;;;6.60;4.82;;;10.70;99.90;;;;;;5075788;28;20029;-75
2022/11/05 09:31:27;;;;;;;5.80;4.53;;;10.70;99.90;;;;;;5066111;28;20036;-76
2022/11/05 09:33:53;;;;;;;9.93;5.50;;;10.80;99.90;;;;;;5062038;28;20029;-75
2022/11/05 09:36:19;;;;;;;9.15;5.70;;;10.80;99.90;;;;;;5070618;28;20043;-75
2022/11/05 09:38:44;;;;;;;9.40;5.78;;;10.90;99.90;;;;;;5075605;28;20074;-75
2022/11/05 09:41:39;;;;;;;6.70;5.13;;;10.90;99.90;;;;;;5076315;28;20032;-75
2022/11/05 09:44:14;;;;;;;9.05;4.63;;;10.90;99.90;;;;;;5053102;28;20032;-74
2022/11/05 09:46:44;;;;;;;7.47;5.18;;;10.90;99.90;;;;;;5065978;28;20515;-74
2022/11/05 09:49:42;;;;;;;8.70;4.55;;;10.90;99.90;;;;;;5074779;28;20028;-75
2022/11/05 09:52:16;;;;;;;7.65;4.50;;;10.90;99.90;;;;;;5064070;28;20083;-75
2022/11/05 09:54:42;;;;;;;8.77;4.22;;;11.00;99.90;;;;;;5073347;28;20024;-74
2022/11/05 09:57:14;;;;;;;7.22;4.28;;;11.00;99.90;;;;;;5071599;28;20017;-75
2022/11/05 09:59:50;;;;;;;8.50;4.25;;;11.10;99.90;;;;;;5072262;28;20029;-75
2022/11/05 10:02:30;;;;;;;4.95;3.70;;;11.10;99.90;;;;;;5066167;28;20559;-73
2022/11/05 10:04:59;;;;;;;5.22;2.90;;;11.20;99.90;;;;;;5071694;28;20076;-75
2022/11/05 10:07:28;;;;;;;3.85;3.17;;;11.20;99.90;;;;;;5071868;28;20036;-75
2022/11/05 10:10:01;;;;;;;10.25;3.97;;;11.20;99.90;;;;;;5075612;28;20503;-72
2022/11/05 10:12:42;;;;;;;4.90;2.80;;;11.30;99.90;;;;;;5072332;28;20107;-72
2022/11/05 10:15:10;;;;;;;;;;;11.30;99.90;;;;;;5068433;28;20035;-72
2022/11/05 10:17:39;;;;;;;5.57;3.95;;;11.30;99.90;;;;;;5068798;28;19908;-72
2022/11/05 10:20:23;;;;;;;5.85;3.47;;;11.30;99.90;;;;;;5069106;28;20499;-72
2022/11/05 10:22:57;;;;;;;6.30;3.45;;;11.40;99.90;;;;;;5068344;28;20439;-73
2022/11/05 10:25:29;;;;;;;7.00;3.75;;;11.40;99.90;;;;;;5069006;28;20021;-73
2022/11/05 10:27:56;;;;;;;9.00;4.00;;;11.40;99.90;;;;;;5028489;28;1062089;-72
2022/11/05 10:30:25;;;;;;;5.85;4.43;;;11.40;99.90;;;;;;5066019;28;20043;-73
2022/11/05 10:32:57;;;;;;;8.98;4.72;;;11.40;99.90;;;;;;5063347;28;20127;-72
2022/11/05 10:35:25;;;;;;;8.50;4.80;;;11.40;99.90;;;;;;5067862;28;20364;-72
2022/11/05 10:37:52;;;;;;;9.68;5.15;;;11.50;99.90;;;;;;5067430;28;20039;-73
2022/11/05 10:40:31;;;;;;;7.45;4.30;;;11.50;99.90;;;;;;5068127;28;20149;-73
2022/11/05 10:43:46;;;;;;;8.85;5.13;;;11.50;99.90;;;;;;5066590;28;20979;-72
2022/11/05 10:46:31;;;;;;;6.38;3.42;;;11.60;99.90;;;;;;4990884;28;20061;-73
2022/11/05 10:49:24;;;;;;;8.55;4.70;;;11.60;99.90;;;;;;5062269;28;20029;-72
2022/11/05 10:51:56;;;;;;;10.15;5.75;;;11.60;99.90;;;;;;5071295;28;20044;-72
2022/11/05 10:54:29;;;;;;;7.82;4.30;;;11.60;99.90;;;;;;5069784;28;20033;-73
2022/11/05 10:56:54;;;;;;;5.32;4.22;;;11.70;99.90;;;;;;5067802;28;20056;-73
2022/11/05 10:59:28;;;;;;;6.38;3.42;;;11.70;99.90;;;;;;5067784;28;20025;-73
2022/11/05 11:01:58;;;;;;;8.07;4.40;;;11.70;99.90;;;;;;5066600;28;20044;-74
2022/11/05 11:04:29;;;;;;;5.88;3.58;;;11.80;99.90;;;;;;5064547;28;20071;-73
2022/11/05 11:06:58;;;;;;;4.53;3.33;;;11.90;99.90;;;;;;5064883;28;20027;-72
2022/11/05 11:09:29;;;;;;;9.03;3.87;;;11.90;99.90;;;;;;5067353;28;20031;-73
2022/11/05 11:12:19;;;;;;;8.98;3.70;;;12.00;99.90;;;;;;5067104;28;20041;-71
2022/11/05 11:15:04;;;;;;;5.72;3.50;;;12.00;99.90;;;;;;5064611;28;20044;-74
2022/11/05 11:17:31;;;;;;;5.70;3.67;;;12.00;99.90;;;;;;5065416;28;20082;-72
2022/11/05 11:20:20;;;;;;;5.35;3.60;;;12.00;99.90;;;;;;5062472;28;22148;-72
2022/11/05 11:23:10;;;;;;;5.05;3.45;;;12.10;99.90;;;;;;5063923;28;20037;-72
2022/11/05 11:25:56;;;;;;;5.63;3.90;;;12.10;99.90;;;;;;5063963;28;20024;-72
2022/11/05 11:28:24;;;;;;;10.18;4.50;;;12.10;99.90;;;;;;5060131;28;20441;-73
2022/11/05 11:30:55;;;;;;;10.60;4.55;;;12.10;99.90;;;;;;5064072;28;20092;-73
2022/11/05 11:33:25;;;;;;;6.07;3.95;;;12.20;99.90;;;;;;5063047;28;20048;-72
2022/11/05 11:35:51;;;;;;;7.28;4.22;;;12.10;99.90;;;;;;5065971;28;20112;-73
2022/11/05 11:38:16;;;;;;;6.85;3.60;;;12.20;99.90;;;;;;5067291;28;20132;-72
2022/11/05 11:40:43;;;;;;;6.85;4.00;;;12.20;99.90;;;;;;5067487;28;20747;-73
2022/11/05 11:43:34;;;;;;;4.63;3.42;;;12.20;99.90;;;;;;5070360;28;20548;-74
2022/11/05 11:46:03;;;;;;;7.13;4.28;;;12.30;99.90;;;;;;5069098;28;20039;-74
2022/11/05 11:48:30;;;;;;;6.88;3.78;;;12.30;99.90;;;;;;5068631;28;20035;-73
2022/11/05 11:50:57;;;;;;;7.32;4.32;;;12.30;99.90;;;;;;5063882;28;20040;-74
2022/11/05 11:53:27;;;;;;;9.00;4.22;;;12.30;99.90;;;;;;5064214;28;20044;-73
2022/11/05 11:56:14;;;;;;;5.63;4.00;;;12.30;99.90;;;;;;5061748;28;20029;-72
2022/11/05 11:58:48;;;;;;;7.38;4.40;;;12.30;99.90;;;;;;5058428;28;20037;-72
2022/11/05 12:01:41;;;;;;;5.80;3.97;;;12.30;99.90;;;;;;5061428;28;20549;-73
2022/11/05 12:04:18;;;;;;;6.35;4.82;;;12.20;99.90;;;;;;5062471;28;20021;-73
2022/11/05 12:07:18;;;;;;;12.43;5.53;;;12.20;99.90;;;;;;5062296;28;20492;-72
2022/11/05 12:09:56;;;;;;;13.45;4.18;;;12.20;99.90;;;;;;5074722;28;20028;-72
2022/11/05 12:12:55;;;;;;;8.05;4.50;;;12.20;99.90;;;;;;5083385;28;20062;-73
2022/11/05 12:15:42;;;;;;;12.85;4.22;;;12.20;99.90;;;;;;5079722;28;20091;-74
2022/11/05 12:18:33;;;;;;;9.27;5.05;;;12.30;99.90;;;;;;5082817;28;20490;-74
2022/11/05 12:20:59;;;;;;;9.52;4.13;;;12.30;99.90;;;;;;5083857;28;20020;-74
2022/11/05 12:24:02;;;;;;;11.18;5.18;;;12.30;99.90;;;;;;5080865;28;20495;-75
2022/11/05 12:26:46;;;;;;;9.02;3.78;;;12.30;99.90;;;;;;5074018;28;20157;-74
2022/11/05 12:29:34;;;;;;;7.25;4.50;;;12.40;99.90;;;;;;5081197;28;20036;-74
2022/11/05 12:32:37;;;;;;;8.82;4.28;;;12.40;99.90;;;;;;5080412;28;20441;-74
2022/11/05 12:35:30;;;;;;;10.20;4.15;;;12.40;99.90;;;;;;5074613;28;20410;-73
2022/11/05 12:37:55;;;;;;;8.68;3.67;;;12.40;99.90;;;;;;5060995;28;20083;-73
2022/11/05 12:40:50;;;;;;;10.40;4.65;;;12.50;99.90;;;;;;5055055;28;20016;-73
2022/11/05 12:43:50;;;;;;;6.88;3.67;;;12.50;99.90;;;;;;5053044;28;20052;-72
2022/11/05 12:46:44;;;;;;;7.20;3.30;;;12.50;99.90;;;;;;5078187;28;20029;-73
2022/11/05 12:49:37;;;;;;;7.00;3.08;;;12.50;99.90;;;;;;5043521;28;20029;-73
2022/11/05 12:52:11;;;;;;;6.45;3.13;;;12.60;99.90;;;;;;5074502;28;20488;-74
2022/11/05 12:54:46;;;;;;;5.65;3.20;;;12.50;99.90;;;;;;5078448;28;20464;-74
2022/11/05 12:57:14;;;;;;;8.77;3.58;;;12.50;99.90;;;;;;5071499;28;20028;-73
2022/11/05 12:59:51;;;;;;;7.45;3.83;;;12.50;99.90;;;;;;5071796;28;20536;-73
2022/11/05 13:02:41;;;;;;;4.60;2.75;;;12.50;99.90;;;;;;5072544;28;20020;-72
2022/11/05 13:05:18;;;;;;;6.15;2.83;;;12.50;99.90;;;;;;5059402;28;20086;-73
2022/11/05 13:08:19;;;;;;;9.20;2.72;;;12.50;99.90;;;;;;5072202;28;20037;-73
2022/11/05 13:10:58;;;;;;;8.40;3.70;;;12.50;99.90;;;;;;5071525;28;20063;-73
2022/11/05 13:13:37;;;;;;;4.70;3.60;;;12.50;99.90;;;;;;5071708;28;20397;-73
2022/11/05 13:16:25;;;;;;;7.70;4.43;;;12.50;99.90;;;;;;5072729;28;20024;-73
2022/11/05 13:18:56;;;;;;;7.57;4.40;;;12.60;99.90;;;;;;5063832;28;20036;-73
2022/11/05 13:21:25;;;;;;;6.65;5.10;;;12.60;99.90;;;;;;5075324;28;20060;-74
2022/11/05 13:23:53;;;;;;;7.70;4.82;;;12.60;99.90;;;;;;5075515;28;20530;-72
2022/11/05 13:26:32;;;;;;;9.02;3.95;;;12.60;99.90;;;;;;5074413;28;20065;-74
2022/11/05 13:29:26;;;;;;;6.28;3.97;;;12.60;99.90;;;;;;5082005;28;20387;-71
2022/11/05 13:32:02;;;;;;;6.35;4.32;;;12.50;99.90;;;;;;5055912;28;20065;-72
2022/11/05 13:34:27;;;;;;;8.48;4.40;;;12.50;99.90;;;;;;5078883;28;20170;-72
2022/11/05 13:39:52;;;;;;;5.13;3.38;;;12.50;99.90;;;;;;5061094;28;20073;-73
2022/11/05 13:42:32;;;;;;;8.27;4.40;;;12.50;99.90;;;;;;5075123;28;20032;-73
2022/11/05 13:44:58;;;;;;;;;;;12.50;99.90;;;;;;5063122;28;20111;-73
2022/11/05 13:47:42;;;;;;;9.55;4.45;;;12.50;99.90;;;;;;5074067;28;20038;-73
2022/11/05 13:50:23;;;;;;;5.18;3.35;;;12.40;99.90;;;;;;5063319;28;20427;-73
2022/11/05 13:53:22;;;;;;;4.97;3.15;;;12.40;99.90;;;;;;5074143;28;20036;-73
2022/11/05 13:55:56;;;;;;;5.38;3.80;;;12.40;99.90;;;;;;5060166;28;20021;-73
2022/11/05 13:58:39;;;;;;;8.75;3.72;;;12.30;99.90;;;;;;5074850;28;20019;-73